KVKS/VKS METAR and TAF weather

Enter ICAO airport designator
Station Type Date Time Source
KVKS METAR 2022/01/19 20:55 UTC NOAA

KVKS 192055Z AUTO 18013G21KT 10SM FEW046 FEW055 SCT075 24/13 A2991 RMK A01


Station Type Date Time Source
KVKS Decoded METAR 2022/01/19 20:55 UTC NOAA

Vicksburg Municipal, MS, United States (KVKS) 32-14N 090-56W
Jan 19, 2022 - 03:55 PM EST / 2022.01.19 2055 UTC
Wind: from the S (180 degrees) at 15 MPH (13 KT) gusting to 24 MPH (21 KT):0
Visibility: 10 mile(s):0
Sky conditions: partly cloudy
Temperature: 75 F (24 C)
Dew Point: 55 F (13 C)
Relative Humidity: 50%
Pressure (altimeter): 29.91 in. Hg (1012 hPa)
ob: KVKS 192055Z AUTO 18013G21KT 10SM FEW046 FEW055 SCT075 24/13 A2991 RMK A01
cycle: 21

Station Type Date Time Source
KVKS TAF UTC NOAA

Error!

Example: see airport list